Time;durP1;ratioP1;P1;durP2;ratioP2;P2;SDS_P1;SDS_P2;PMS_P1;PMS_P2;Temp;Humidity;BMP_temperature;BMP_pressure;BME280_temperature;BME280_humidity;BME280_pressure;Samples;Min_cycle;Max_cycle;Signal;HPM_P1;HPM_P2
2022/04/15 00:00:38;;;;;;;;;;;6.50;99.90;;;;;;4972956;28;19925;-78
2022/04/15 00:03:05;;;;;;;;;;;6.50;99.90;;;;;;4976777;28;19929;-78
2022/04/15 00:05:37;;;;;;;;;;;6.50;99.90;;;;;;4959641;28;19980;-77
2022/04/15 00:08:06;;;;;;;;;;;6.50;99.90;;;;;;4975145;28;19926;-78
2022/04/15 00:10:32;;;;;;;;;;;6.50;99.90;;;;;;4958508;28;19933;-78
2022/04/15 00:12:59;;;;;;;;;;;6.60;99.90;;;;;;4975729;28;19926;-78
2022/04/15 00:15:24;;;;;;;;;;;6.70;99.90;;;;;;4976798;28;20413;-78
2022/04/15 00:17:50;;;;;;;;;;;6.70;99.90;;;;;;4975863;28;19968;-78
2022/04/15 00:20:16;;;;;;;;;;;6.80;99.90;;;;;;4976036;28;19922;-78
2022/04/15 00:22:41;;;;;;;;;;;6.80;99.90;;;;;;4972688;28;20274;-78
2022/04/15 00:25:09;;;;;;;;;;;6.90;99.90;;;;;;4977130;28;19922;-78
2022/04/15 00:27:35;;;;;;;;;;;7.00;99.90;;;;;;4976816;28;19922;-78
2022/04/15 00:30:00;;;;;;;;;;;7.00;99.90;;;;;;4977843;28;19926;-78
2022/04/15 00:32:27;;;;;;;;;;;7.10;99.90;;;;;;4976084;28;19926;-78
2022/04/15 00:34:53;;;;;;;;;;;7.10;99.90;;;;;;4977097;28;20288;-78
2022/04/15 00:37:18;;;;;;;;;;;7.20;99.90;;;;;;4957238;28;20013;-78
2022/04/15 00:39:45;;;;;;;;;;;7.20;99.90;;;;;;4942067;28;20385;-78
2022/04/15 00:42:11;;;;;;;;;;;7.30;99.90;;;;;;4969804;28;19975;-78
2022/04/15 00:44:37;;;;;;;;;;;7.30;99.90;;;;;;4976478;28;19921;-78
2022/04/15 00:47:16;;;;;;;;;;;7.30;99.90;;;;;;4976895;28;19928;-78
2022/04/15 00:49:42;;;;;;;;;;;7.40;99.90;;;;;;4977451;28;19921;-78
2022/04/15 00:52:08;;;;;;;;;;;7.40;99.90;;;;;;4975510;28;19928;-78
2022/04/15 00:54:34;;;;;;;;;;;7.40;99.90;;;;;;4978163;28;19922;-78
2022/04/15 00:57:00;;;;;;;;;;;7.50;99.90;;;;;;4978239;28;20312;-78
2022/04/15 00:59:26;;;;;;;;;;;7.50;99.90;;;;;;4978840;28;19922;-78
2022/04/15 01:01:52;;;;;;;;;;;7.50;99.90;;;;;;4977231;28;19922;-79
2022/04/15 01:04:18;;;;;;;;;;;7.50;99.90;;;;;;4977533;28;20407;-78
2022/04/15 01:06:46;;;;;;;;;;;7.50;99.90;;;;;;4979001;28;20000;-78
2022/04/15 01:09:12;;;;;;;;;;;7.50;99.90;;;;;;4978191;28;20402;-78
2022/04/15 01:11:38;;;;;;;;;;;7.60;99.90;;;;;;4961554;28;19943;-78
2022/04/15 01:14:05;;;;;;;;;;;7.60;99.90;;;;;;4978385;28;19932;-78
2022/04/15 01:16:32;;;;;;;;;;;7.70;99.90;;;;;;4978668;28;19960;-78
2022/04/15 01:18:58;;;;;;;;;;;7.70;99.90;;;;;;4974305;28;19922;-78
2022/04/15 01:21:24;;;;;;;;;;;7.70;99.90;;;;;;4976248;28;20072;-78
2022/04/15 01:23:50;;;;;;;;;;;7.70;99.90;;;;;;4961456;28;19926;-78
2022/04/15 01:26:18;;;;;;;;;;;7.80;99.90;;;;;;4976642;28;20407;-78
2022/04/15 01:28:44;;;;;;;;;;;7.80;99.90;;;;;;4980300;28;20400;-78
2022/04/15 01:31:09;;;;;;;;;;;7.80;99.90;;;;;;4975179;28;19978;-77
2022/04/15 01:33:35;;;;;;;;;;;7.90;99.90;;;;;;4978163;28;20269;-78
2022/04/15 01:36:00;;;;;;;;;;;7.90;99.90;;;;;;4976495;28;19932;-78
2022/04/15 01:38:26;;;;;;;;;;;7.90;99.90;;;;;;4962015;28;19928;-77
2022/04/15 01:40:52;;;;;;;;;;;8.00;99.90;;;;;;4961216;28;20431;-78
2022/04/15 01:43:17;;;;;;;;;;;8.00;99.90;;;;;;4977727;28;20411;-78
2022/04/15 01:45:43;;;;;;;;;;;8.00;99.90;;;;;;4978524;28;19921;-78
2022/04/15 01:48:08;;;;;;;;;;;8.00;99.90;;;;;;4979079;28;19929;-78
2022/04/15 01:50:34;;;;;;;;;;;8.00;99.90;;;;;;4978221;28;19922;-77
2022/04/15 01:52:59;;;;;;;;;;;8.00;99.90;;;;;;4982110;28;20023;-78
2022/04/15 01:55:25;;;;;;;;;;;8.10;99.90;;;;;;4964594;28;20296;-78
2022/04/15 01:57:51;;;;;;;;;;;8.10;99.90;;;;;;4981229;28;20024;-78
2022/04/15 02:00:17;;;;;;;;;;;8.10;99.90;;;;;;4980111;28;20369;-78
2022/04/15 02:02:42;;;;;;;;;;;8.10;99.90;;;;;;4980909;28;19929;-78
2022/04/15 02:05:08;;;;;;;;;;;8.10;99.90;;;;;;4981086;28;20377;-78
2022/04/15 02:07:33;;;;;;;;;;;8.10;99.90;;;;;;4980334;28;19929;-78
2022/04/15 02:09:59;;;;;;;;;;;8.10;99.90;;;;;;4980597;28;20321;-78
2022/04/15 02:12:24;;;;;;;;;;;8.20;99.90;;;;;;4980211;28;20389;-78
2022/04/15 02:14:50;;;;;;;;;;;8.20;99.90;;;;;;4981425;28;19998;-79
2022/04/15 02:17:15;;;;;;;;;;;8.20;99.90;;;;;;4980742;28;19965;-78
2022/04/15 02:19:41;;;;;;;;;;;8.30;99.90;;;;;;4981204;28;19926;-78
2022/04/15 02:22:06;;;;;;;;;;;8.30;99.90;;;;;;4960885;28;19973;-79
2022/04/15 02:24:32;;;;;;;;;;;8.30;99.90;;;;;;4981727;28;19922;-78
2022/04/15 02:26:57;;;;;;;;;;;8.30;99.90;;;;;;4979969;28;20391;-78
2022/04/15 02:29:23;;;;;;;;;;;8.30;99.90;;;;;;4980008;28;19977;-78
2022/04/15 02:31:48;;;;;;;;;;;8.30;99.90;;;;;;4977719;28;19922;-78
2022/04/15 02:34:14;;;;;;;;;;;8.30;99.90;;;;;;4978023;28;19976;-78
2022/04/15 02:36:39;;;;;;;;;;;8.40;99.90;;;;;;4978989;28;19969;-78
2022/04/15 02:39:10;;;;;;;;;;;8.40;99.90;;;;;;4978994;28;19921;-78
2022/04/15 02:41:36;;;;;;;;;;;8.40;99.90;;;;;;4960612;28;20008;-78
2022/04/15 02:44:01;;;;;;;;;;;8.40;99.90;;;;;;4964052;28;20008;-78
2022/04/15 02:46:27;;;;;;;;;;;8.40;99.90;;;;;;4981564;28;19972;-78
2022/04/15 02:48:52;;;;;;;;;;;8.40;99.90;;;;;;4964062;28;19967;-77
2022/04/15 02:51:18;;;;;;;;;;;8.40;99.90;;;;;;4961110;28;20009;-77
2022/04/15 02:53:43;;;;;;;;;;;8.50;99.90;;;;;;4978957;28;19933;-78
2022/04/15 02:56:09;;;;;;;;;;;8.50;99.90;;;;;;4977441;28;19984;-78
2022/04/15 02:58:34;;;;;;;;;;;8.50;99.90;;;;;;4978035;28;19922;-78
2022/04/15 03:01:01;;;;;;;;;;;8.50;99.90;;;;;;4972452;28;19953;-78
2022/04/15 03:03:27;;;;;;;;;;;8.50;99.90;;;;;;4973905;28;19953;-77
2022/04/15 03:05:53;;;;;;;;;;;8.50;99.90;;;;;;4977168;28;19961;-78
2022/04/15 03:08:18;;;;;;;;;;;8.50;99.90;;;;;;4977706;28;19984;-78
2022/04/15 03:10:44;;;;;;;;;;;8.40;99.90;;;;;;4978807;28;19922;-77
2022/04/15 03:13:10;;;;;;;;;;;8.50;99.90;;;;;;4972559;28;19926;-78
2022/04/15 03:15:37;;;;;;;;;;;8.50;99.90;;;;;;4977466;28;20384;-77
2022/04/15 03:18:02;;;;;;;;;;;8.50;99.90;;;;;;4960685;28;19922;-77
2022/04/15 03:20:28;;;;;;;;;;;8.50;99.90;;;;;;4975196;28;19922;-77
2022/04/15 03:22:54;;;;;;;;;;;8.50;99.90;;;;;;4977903;28;20333;-77
2022/04/15 03:25:19;;;;;;;;;;;8.50;99.90;;;;;;4976338;28;20025;-77
2022/04/15 03:27:45;;;;;;;;;;;8.50;99.90;;;;;;4975915;28;19922;-77
2022/04/15 03:30:11;;;;;;;;;;;8.60;99.90;;;;;;4959058;28;19948;-77
2022/04/15 03:32:46;;;;;;;;;;;8.60;99.90;;;;;;4975984;28;20252;-77
2022/04/15 03:35:12;;;;;;;;;;;8.60;99.90;;;;;;4962479;28;19922;-77
2022/04/15 03:37:38;;;;;;;;;;;8.50;99.90;;;;;;4976160;28;19921;-77
2022/04/15 03:40:05;;;;;;;;;;;8.60;99.90;;;;;;4974764;28;19972;-77
2022/04/15 03:42:30;;;;;;;;;;;8.50;99.90;;;;;;4978271;28;19996;-77
2022/04/15 03:44:55;;;;;;;;;;;8.50;99.90;;;;;;4960669;28;20376;-77
2022/04/15 03:47:22;;;;;;;;;;;8.60;99.90;;;;;;4975277;28;19969;-77
2022/04/15 03:49:48;;;;;;;;;;;8.60;99.90;;;;;;4959505;28;19930;-77
2022/04/15 03:52:13;;;;;;;;;;;8.60;99.90;;;;;;4974243;28;20424;-77
2022/04/15 03:54:38;;;;;;;;;;;8.60;99.90;;;;;;4959465;28;19929;-77
2022/04/15 03:57:04;;;;;;;;;;;8.50;99.90;;;;;;4975368;28;19950;-77
2022/04/15 03:59:29;;;;;;;;;;;8.50;99.90;;;;;;4974630;28;19921;-77
2022/04/15 04:01:55;;;;;;;;;;;8.50;99.90;;;;;;4958015;28;19922;-76
2022/04/15 04:04:20;;;;;;;;;;;8.50;99.90;;;;;;4975577;28;19948;-77
2022/04/15 04:06:46;;;;;;;;;;;8.40;99.90;;;;;;4958867;28;19930;-77
2022/04/15 04:09:11;;;;;;;;;;;8.40;99.90;;;;;;4975586;28;19926;-77
2022/04/15 04:11:37;;;;;;;;;;;8.40;99.90;;;;;;4951459;28;20336;-76
2022/04/15 04:14:02;;;;;;;;;;;8.30;99.90;;;;;;4975257;28;19926;-77
2022/04/15 04:16:28;;;;;;;;;;;8.30;99.90;;;;;;4974770;28;19922;-76
2022/04/15 04:18:53;;;;;;;;;;;8.30;99.90;;;;;;4974996;28;19976;-77
2022/04/15 04:21:20;;;;;;;;;;;8.30;99.90;;;;;;4973191;28;19921;-76
2022/04/15 04:23:45;;;;;;;;;;;8.30;99.90;;;;;;4975033;28;19928;-77
2022/04/15 04:26:11;;;;;;;;;;;8.30;99.90;;;;;;4974603;28;19926;-77
2022/04/15 04:28:36;;;;;;;;;;;8.30;99.90;;;;;;4975251;28;19944;-76
2022/04/15 04:31:02;;;;;;;;;;;8.20;99.90;;;;;;4974071;28;20017;-76
2022/04/15 04:33:27;;;;;;;;;;;8.20;99.90;;;;;;4974659;28;19934;-77
2022/04/15 04:35:53;;;;;;;;;;;8.20;99.90;;;;;;4974515;28;19929;-76
2022/04/15 04:38:19;;;;;;;;;;;8.10;99.90;;;;;;4974844;28;20241;-76
2022/04/15 04:40:45;;;;;;;;;;;8.10;99.90;;;;;;4972232;28;19922;-76
2022/04/15 04:43:11;;;;;;;;;;;8.20;99.90;;;;;;4974684;28;20330;-76
2022/04/15 04:45:36;;;;;;;;;;;8.10;99.90;;;;;;4974929;28;20021;-76
2022/04/15 04:48:03;;;;;;;;;;;8.10;99.90;;;;;;4959584;28;19929;-77
2022/04/15 04:50:28;;;;;;;;;;;8.10;99.90;;;;;;4971696;28;20016;-77
2022/04/15 04:52:54;;;;;;;;;;;8.10;99.90;;;;;;4974654;28;20013;-77
2022/04/15 04:55:20;;;;;;;;;;;8.10;99.90;;;;;;4974657;28;20312;-77
2022/04/15 04:57:46;;;;;;;;;;;8.00;99.90;;;;;;4958527;28;19926;-77
2022/04/15 05:00:12;;;;;;;;;;;8.00;99.90;;;;;;4957508;28;19926;-77
2022/04/15 05:02:38;;;;;;;;;;;8.00;99.90;;;;;;4971059;28;19949;-77
2022/04/15 05:05:04;;;;;;;;;;;7.90;99.90;;;;;;4975034;28;19948;-77
2022/04/15 05:07:30;;;;;;;;;;;7.90;99.90;;;;;;4975248;28;19934;-77
2022/04/15 05:09:55;;;;;;;;;;;7.90;99.90;;;;;;4973684;28;19986;-77
2022/04/15 05:12:21;;;;;;;;;;;7.90;99.90;;;;;;4974568;28;19921;-76
2022/04/15 05:14:47;;;;;;;;;;;7.90;99.90;;;;;;4974581;28;19921;-76
2022/04/15 05:17:12;;;;;;;;;;;7.90;99.90;;;;;;4974633;28;20372;-76
2022/04/15 05:19:38;;;;;;;;;;;7.90;99.90;;;;;;4974590;28;19937;-76
2022/04/15 05:22:03;;;;;;;;;;;7.80;99.90;;;;;;4972571;28;19928;-75
2022/04/15 05:24:29;;;;;;;;;;;7.80;99.90;;;;;;4978427;28;19928;-75
2022/04/15 05:26:54;;;;;;;;;;;7.80;99.90;;;;;;4977885;28;20364;-75
2022/04/15 05:29:20;;;;;;;;;;;7.80;99.90;;;;;;4978108;28;19922;-75
2022/04/15 05:31:45;;;;;;;;;;;7.80;99.90;;;;;;4974996;28;19931;-75
2022/04/15 05:34:11;;;;;;;;;;;7.80;99.90;;;;;;4977941;28;19952;-75
2022/04/15 05:36:36;;;;;;;;;;;7.80;99.90;;;;;;4982408;28;20002;-75
2022/04/15 05:39:02;;;;;;;;;;;7.80;99.90;;;;;;4983081;28;19933;-75
2022/04/15 05:41:28;;;;;;;;;;;7.80;99.90;;;;;;4978898;28;19984;-75
2022/04/15 05:43:53;;;;;;;;;;;7.80;99.90;;;;;;4982926;28;19922;-75
2022/04/15 05:46:19;;;;;;;;;;;7.80;99.90;;;;;;4982424;28;19922;-75
2022/04/15 05:48:45;;;;;;;;;;;7.80;99.90;;;;;;4965436;28;19926;-77
2022/04/15 05:51:10;;;;;;;;;;;7.80;99.90;;;;;;4977913;28;19929;-77
2022/04/15 05:53:36;;;;;;;;;;;7.80;99.90;;;;;;4978318;28;19930;-77
2022/04/15 05:56:01;;;;;;;;;;;7.70;99.90;;;;;;4995724;28;19976;-77
2022/04/15 05:58:27;;;;;;;;;;;7.70;99.90;;;;;;4978499;28;19965;-77
2022/04/15 06:00:53;;;;;;;;;;;7.70;99.90;;;;;;4977016;28;19922;-76
2022/04/15 06:03:22;;;;;;;;;;;7.70;99.90;;;;;;4979309;28;20012;-77
2022/04/15 06:05:48;;;;;;;;;;;7.70;99.90;;;;;;4978028;28;19991;-77
2022/04/15 06:08:14;;;;;;;;;;;7.70;99.90;;;;;;4977992;28;19922;-76
2022/04/15 06:10:39;;;;;;;;;;;7.70;99.90;;;;;;4977138;28;19926;-76
2022/04/15 06:13:19;;;;;;;;;;;7.70;99.90;;;;;;4969710;28;19926;-76
2022/04/15 06:15:51;;;;;;;;;;;7.70;99.90;;;;;;4977506;28;20312;-76
2022/04/15 06:18:17;;;;;;;;;;;7.70;99.90;;;;;;4995389;28;20203;-76
2022/04/15 06:20:43;;;;;;;;;;;7.70;99.90;;;;;;4975005;28;20012;-76
2022/04/15 06:23:08;;;;;;;;;;;7.70;99.90;;;;;;4977136;28;19933;-76
2022/04/15 06:25:34;;;;;;;;;;;7.70;99.90;;;;;;4977352;28;19921;-77
2022/04/15 06:27:59;;;;;;;;;;;7.70;99.90;;;;;;4975984;28;20367;-77
2022/04/15 06:30:25;;;;;;;;;;;7.70;99.90;;;;;;4976380;28;19928;-77
2022/04/15 06:32:51;;;;;;;;;;;7.70;99.90;;;;;;4977224;28;19963;-77
2022/04/15 06:35:17;;;;;;;;;;;7.70;99.90;;;;;;4976382;28;19956;-77
2022/04/15 06:37:42;;;;;;;;;;;7.70;99.90;;;;;;4977081;28;19949;-77
2022/04/15 06:40:08;;;;;;;;;;;7.70;99.90;;;;;;4974651;28;19929;-77
2022/04/15 06:42:34;;;;;;;;;;;7.70;99.90;;;;;;4994758;28;19929;-76
2022/04/15 06:45:00;;;;;;;;;;;7.70;99.90;;;;;;4976553;28;20008;-76
2022/04/15 06:47:25;;;;;;;;;;;7.80;99.90;;;;;;4976860;28;19957;-76
2022/04/15 06:49:51;;;;;;;;;;;7.80;99.90;;;;;;4975322;28;19925;-76
2022/04/15 06:52:20;;;;;;;;;;;7.90;99.90;;;;;;4970367;28;20012;-76
2022/04/15 06:54:45;;;;;;;;;;;7.90;99.90;;;;;;4960130;28;19968;-76
2022/04/15 06:57:11;;;;;;;;;;;7.90;99.90;;;;;;4976074;28;20304;-77
2022/04/15 06:59:38;;;;;;;;;;;7.90;99.90;;;;;;4976043;28;19922;-76
2022/04/15 07:02:04;;;;;;;;;;;7.90;99.90;;;;;;4976741;28;20384;-77
2022/04/15 07:04:31;;;;;;;;;;;8.00;99.90;;;;;;4976922;28;20017;-76
2022/04/15 07:06:56;;;;;;;;;;;8.00;99.90;;;;;;4976820;28;19922;-77
2022/04/15 07:09:22;;;;;;;;;;;8.00;99.90;;;;;;4976721;28;19929;-77
2022/04/15 07:11:47;;;;;;;;;;;8.10;99.90;;;;;;4958694;28;20415;-77
2022/04/15 07:14:13;;;;;;;;;;;8.10;99.90;;;;;;4974756;28;19926;-77
2022/04/15 07:16:38;;;;;;;;;;;8.10;99.90;;;;;;4959525;28;20296;-77
2022/04/15 07:19:04;;;;;;;;;;;8.10;99.90;;;;;;4976319;28;20009;-77
2022/04/15 07:21:30;;;;;;;;;;;8.10;99.90;;;;;;4974352;28;19979;-76
2022/04/15 07:23:56;;;;;;;;;;;8.10;99.90;;;;;;4959976;28;20359;-76
2022/04/15 07:26:21;;;;;;;;;;;8.20;99.90;;;;;;4976147;28;20336;-77
2022/04/15 07:28:47;;;;;;;;;;;8.20;99.90;;;;;;4976056;28;19921;-77
2022/04/15 07:31:12;;;;;;;;;;;8.30;99.90;;;;;;4973187;28;20297;-77
2022/04/15 07:33:38;;;;;;;;;;;8.30;99.90;;;;;;4974366;28;20384;-77
2022/04/15 07:36:29;;;;;;;;;;;8.30;99.90;;;;;;4975617;28;19929;-77
2022/04/15 07:38:48;;;;;;;;;;;8.40;99.90;;;;;;4975695;28;20512;-77
2022/04/15 07:41:16;;;;;;;;;;;8.50;99.90;;;;;;4975695;28;19943;-77
2022/04/15 07:43:42;;;;;;;;;;;8.60;99.90;;;;;;4976037;28;19926;-77
2022/04/15 07:46:07;;;;;;;;;;;8.70;99.90;;;;;;4975370;28;19922;-77
2022/04/15 07:48:33;;;;;;;;;;;8.80;99.90;;;;;;4975485;28;20440;-77
2022/04/15 07:50:59;;;;;;;;;;;8.80;99.90;;;;;;4975621;28;19922;-77
2022/04/15 07:53:24;;;;;;;;;;;8.90;99.90;;;;;;4975537;28;19926;-76
2022/04/15 07:55:50;;;;;;;;;;;8.90;99.90;;;;;;4975022;28;19957;-76
2022/04/15 07:58:15;;;;;;;;;;;8.90;99.90;;;;;;4975545;28;20388;-77
2022/04/15 08:00:42;;;;;;;;;;;9.00;99.90;;;;;;4975431;28;19992;-76
2022/04/15 08:03:08;;;;;;;;;;;8.90;99.90;;;;;;4975423;28;19976;-77
2022/04/15 08:05:33;;;;;;;;;;;8.90;99.90;;;;;;4975310;28;19922;-77
2022/04/15 08:07:59;;;;;;;;;;;9.00;99.90;;;;;;4975219;28;20336;-77
2022/04/15 08:10:24;;;;;;;;;;;9.00;99.90;;;;;;4975610;28;20395;-77
2022/04/15 08:12:50;;;;;;;;;;;9.10;99.90;;;;;;4975122;28;19926;-77
2022/04/15 08:15:15;;;;;;;;;;;9.10;99.90;;;;;;4975044;28;19945;-76
2022/04/15 08:17:41;;;;;;;;;;;9.10;99.90;;;;;;4975149;28;19921;-77
2022/04/15 08:20:06;;;;;;;;;;;9.20;99.90;;;;;;4975109;28;19929;-77
2022/04/15 08:22:36;;;;;;;;;;;9.30;99.90;;;;;;4975354;28;19929;-76
2022/04/15 08:25:02;;;;;;;;;;;9.40;99.90;;;;;;4974946;28;19976;-76
2022/04/15 08:27:28;;;;;;;;;;;9.50;99.90;;;;;;4975114;28;19988;-76
2022/04/15 08:29:53;;;;;;;;;;;9.60;99.90;;;;;;4974980;28;20385;-76
2022/04/15 08:32:20;;;;;;;;;;;9.70;99.90;;;;;;4975289;28;20068;-76
2022/04/15 08:34:45;;;;;;;;;;;9.70;99.90;;;;;;4975348;28;20367;-76
2022/04/15 08:37:12;;;;;;;;;;;9.60;99.90;;;;;;4974923;28;20013;-76
2022/04/15 08:39:38;;;;;;;;;;;9.60;99.90;;;;;;4974876;28;20004;-76
2022/04/15 08:42:06;;;;;;;;;;;9.70;99.90;;;;;;4974576;28;19972;-76
2022/04/15 08:44:32;;;;;;;;;;;9.80;99.90;;;;;;4958899;28;19926;-76
2022/04/15 08:46:57;;;;;;;;;;;9.90;99.90;;;;;;4974766;28;19929;-76
2022/04/15 08:49:24;;;;;;;;;;;10.00;99.90;;;;;;4974870;28;19922;-76
2022/04/15 08:51:50;;;;;;;;;;;10.10;99.90;;;;;;4974878;28;19930;-76
2022/04/15 08:54:17;;;;;;;;;;;10.20;99.90;;;;;;4974718;28;19969;-76
2022/04/15 08:56:43;;;;;;;;;;;10.30;99.90;;;;;;4974438;28;19922;-76
2022/04/15 08:59:09;;;;;;;;;;;10.40;99.90;;;;;;4978309;28;19947;-76
2022/04/15 09:01:34;;;;;;;;;;;10.60;99.90;;;;;;4978614;28;19962;-76
2022/04/15 09:04:00;;;;;;;;;;;10.70;99.90;;;;;;4978623;28;19928;-76
2022/04/15 09:06:30;;;;;;;;;;;11.00;99.90;;;;;;4978390;28;19953;-76
2022/04/15 09:09:02;;;;;;;;;;;11.20;99.90;;;;;;4978696;28;19929;-76
2022/04/15 09:11:31;;;;;;;;;;;11.50;99.90;;;;;;4978496;28;19922;-77
2022/04/15 09:13:57;;;;;;;;;;;11.70;99.90;;;;;;4978396;28;19937;-77
2022/04/15 09:16:24;;;;;;;;;;;11.90;99.90;;;;;;4977934;28;19922;-77
2022/04/15 09:18:49;;;;;;;;;;;12.20;99.90;;;;;;4978325;28;19926;-77
2022/04/15 09:21:21;;;;;;;;;;;12.20;99.90;;;;;;4978400;28;19962;-77
2022/04/15 09:23:51;;;;;;;;;;;12.10;99.90;;;;;;4978364;28;19968;-77
2022/04/15 09:26:17;;;;;;;;;;;12.00;99.90;;;;;;4977897;28;19949;-77
2022/04/15 09:28:43;;;;;;;;;;;11.80;99.90;;;;;;4978254;28;19997;-77
2022/04/15 09:31:13;;;;;;;;;;;11.80;99.90;;;;;;4978113;28;19976;-76
2022/04/15 09:33:49;;;;;;;;;;;11.70;99.90;;;;;;4976801;28;19976;-76
2022/04/15 09:36:22;;;;;;;;;;;11.80;99.90;;;;;;4976078;28;19973;-77
2022/04/15 09:38:49;;;;;;;;;;;11.90;99.90;;;;;;4975512;28;19925;-77
2022/04/15 09:41:19;;;;;;;;;;;12.00;99.90;;;;;;4975024;28;19983;-77
2022/04/15 09:43:51;;;;;;;;;;;11.90;99.90;;;;;;4974717;28;19921;-77
2022/04/15 09:46:16;;;;;;;;;;;11.80;99.90;;;;;;4978166;28;19922;-77
2022/04/15 09:48:56;;;;;;;;;;;12.10;99.90;;;;;;4976952;28;19984;-77
2022/04/15 09:51:22;;;;;;;;;;;12.40;99.90;;;;;;4977875;28;20048;-77
2022/04/15 09:53:48;;;;;;;;;;;12.40;99.90;;;;;;4977999;28;20458;-77
2022/04/15 09:56:14;;;;;;;;;;;12.40;99.90;;;;;;4982672;28;19933;-77
2022/04/15 09:58:42;;;;;;;;;;;12.40;99.90;;;;;;4997300;28;19928;-77
2022/04/15 10:01:08;;;;;;;;;;;12.20;99.90;;;;;;4985757;28;20273;-77
2022/04/15 10:03:35;;;;;;;;;;;12.10;99.90;;;;;;4977552;28;19928;-77
2022/04/15 10:06:01;;;;;;;;;;;12.10;99.90;;;;;;4974554;28;20399;-77
2022/04/15 10:08:27;;;;;;;;;;;11.90;99.90;;;;;;4953305;28;20016;-77
2022/04/15 10:10:52;;;;;;;;;;;11.70;99.90;;;;;;4954903;28;19976;-77
2022/04/15 10:13:18;;;;;;;;;;;11.80;99.90;;;;;;4970966;28;19934;-77
2022/04/15 10:15:45;;;;;;;;;;;11.80;99.90;;;;;;4973722;28;20017;-77
2022/04/15 10:18:11;;;;;;;;;;;11.90;99.90;;;;;;4975822;28;20376;-77
2022/04/15 10:20:38;;;;;;;;;;;12.00;99.90;;;;;;4977474;28;19968;-79
2022/04/15 10:23:08;;;;;;;;;;;12.00;99.90;;;;;;4976232;28;19929;-77
2022/04/15 10:25:34;;;;;;;;;;;12.10;99.90;;;;;;4976886;28;19921;-77
2022/04/15 10:28:24;;;;;;;;;;;12.10;99.90;;;;;;4974223;28;20415;-77
2022/04/15 10:30:51;;;;;;;;;;;12.10;99.90;;;;;;4974256;28;19969;-78
2022/04/15 10:33:34;;;;;;;;;;;11.90;99.90;;;;;;4976225;28;19926;-78
2022/04/15 10:36:09;;;;;;;;;;;11.90;99.90;;;;;;4975971;28;20005;-77
2022/04/15 10:38:34;;;;;;;;;;;11.90;99.90;;;;;;4976146;28;19921;-76
2022/04/15 10:41:11;;;;;;;;;;;12.00;99.90;;;;;;4976521;28;20005;-76
2022/04/15 10:43:36;;;;;;;;;;;12.00;99.90;;;;;;4976111;28;20005;-76
2022/04/15 10:46:14;;;;;;;;;;;12.00;99.90;;;;;;4976527;28;19965;-76
2022/04/15 10:48:40;;;;;;;;;;;11.90;99.90;;;;;;4976192;28;19925;-76
2022/04/15 10:51:26;;;;;;;;;;;11.80;99.90;;;;;;4977177;28;20004;-76
2022/04/15 10:53:52;;;;;;;;;;;11.60;99.90;;;;;;4975485;28;19936;-76
2022/04/15 10:56:19;;;;;;;;;;;11.50;99.90;;;;;;4976215;28;19965;-76
2022/04/15 11:01:32;;;;;;;;;;;11.50;99.90;;;;;;4971767;28;19921;-76
2022/04/15 11:04:05;;;;;;;;;;;11.60;99.90;;;;;;4975313;28;20337;-76
2022/04/15 11:06:31;;;;;;;;;;;11.60;99.90;;;;;;4974239;28;20020;-76
2022/04/15 11:08:56;;;;;;;;;;;11.60;99.90;;;;;;4973017;28;20064;-76
2022/04/15 11:11:32;;;;;;;;;;;11.50;99.90;;;;;;4973004;28;19980;-76
2022/04/15 11:13:59;;;;;;;;;;;11.40;99.90;;;;;;4975705;28;19925;-77
2022/04/15 11:16:38;;;;;;;;;;;11.50;99.90;;;;;;4992357;28;20312;-77
2022/04/15 11:19:03;;;;;;;;;;;11.50;99.90;;;;;;4971682;28;20343;-77
2022/04/15 11:21:31;;;;;;;;;;;11.50;99.90;;;;;;4973280;28;20013;-77
2022/04/15 11:23:58;;;;;;;;;;;11.50;99.90;;;;;;4971293;28;19922;-77
2022/04/15 11:26:25;;;;;;;;;;;11.50;99.90;;;;;;4975158;28;19965;-77
2022/04/15 11:28:51;;;;;;;;;;;11.50;99.90;;;;;;4975402;28;19922;-77
2022/04/15 11:31:26;;;;;;;;;;;11.50;99.90;;;;;;4975884;28;19937;-76
2022/04/15 11:33:52;;;;;;;;;;;11.40;99.90;;;;;;4975768;28;19929;-76
2022/04/15 11:36:18;;;;;;;;;;;11.40;99.90;;;;;;4975957;28;19957;-78
2022/04/15 11:38:47;;;;;;;;;;;11.50;99.90;;;;;;4975754;28;19964;-78
2022/04/15 11:41:16;;;;;;;;;;;11.50;99.90;;;;;;4992831;28;20024;-78
2022/04/15 11:43:47;;;;;;;;;;;11.50;99.90;;;;;;4975789;28;20392;-78
2022/04/15 11:46:12;;;;;;;;;;;11.60;99.90;;;;;;4974522;28;19985;-78
2022/04/15 11:48:38;;;;;;;;;;;11.50;99.90;;;;;;4975435;28;19922;-78
2022/04/15 11:51:03;;;;;;;;;;;11.50;99.90;;;;;;4959506;28;19922;-78
2022/04/15 11:53:30;;;;;;;;;;;11.40;99.90;;;;;;4975712;28;19932;-78
2022/04/15 11:55:58;;;;;;;;;;;11.30;99.90;;;;;;4975138;28;19922;-78
2022/04/15 11:58:24;;;;;;;;;;;11.20;99.90;;;;;;4975067;28;19921;-78
2022/04/15 12:00:50;;;;;;;;;;;11.10;99.90;;;;;;4975897;28;19941;-78
2022/04/15 12:03:16;;;;;;;;;;;11.00;99.90;;;;;;4974610;28;20276;-78
2022/04/15 12:05:41;;;;;;;;;;;11.00;99.90;;;;;;4958325;28;19922;-78
2022/04/15 12:08:08;;;;;;;;;;;10.80;99.90;;;;;;4974188;28;20300;-78
2022/04/15 12:10:37;;;;;;;;;;;10.80;99.90;;;;;;4975491;28;20266;-77
2022/04/15 12:13:02;;;;;;;;;;;10.90;99.90;;;;;;4971406;28;19937;-77
2022/04/15 12:15:30;;;;;;;;;;;10.80;99.90;;;;;;4971321;28;20345;-79
2022/04/15 12:17:57;;;;;;;;;;;10.80;99.90;;;;;;4972150;28;19921;-77
2022/04/15 12:20:22;;;;;;;;;;;10.80;99.90;;;;;;4968670;28;20432;-77
2022/04/15 12:22:48;;;;;;;;;;;10.80;99.90;;;;;;4975044;28;19925;-77
2022/04/15 12:25:14;;;;;;;;;;;10.80;99.90;;;;;;4986961;28;19922;-77
2022/04/15 12:27:44;;;;;;;;;;;10.90;99.90;;;;;;4987473;28;19925;-78
2022/04/15 12:30:28;;;;;;;;;;;10.90;99.90;;;;;;4986248;28;20347;-77
2022/04/15 12:33:39;;;;;;;;;;;10.90;99.90;;;;;;4968812;28;19926;-76
2022/04/15 12:36:52;;;;;;;;;;;10.90;99.90;;;;;;5003523;28;20366;-77
2022/04/15 12:39:18;;;;;;;;;;;10.80;99.90;;;;;;4971667;28;19933;-77
2022/04/15 12:41:48;;;;;;;;;;;10.80;99.90;;;;;;4974038;28;19932;-79
2022/04/15 12:44:15;;;;;;;;;;;10.90;99.90;;;;;;4971184;28;19922;-78
2022/04/15 12:46:44;;;;;;;;;;;10.90;99.90;;;;;;4961816;28;19922;-77
2022/04/15 12:49:28;;;;;;;;;;;11.00;99.90;;;;;;4972785;28;19949;-77
2022/04/15 12:51:58;;;;;;;;;;;11.00;99.90;;;;;;4974080;28;19925;-77
2022/04/15 12:54:25;;;;;;;;;;;11.00;99.90;;;;;;4973625;28;19922;-77
2022/04/15 12:56:54;;;;;;;;;;;11.00;99.90;;;;;;4974532;28;19926;-76
2022/04/15 12:59:19;;;;;;;;;;;10.90;99.90;;;;;;4958832;28;19949;-76
2022/04/15 13:01:45;;;;;;;;;;;10.80;99.90;;;;;;4974698;28;19922;-76
2022/04/15 13:04:13;;;;;;;;;;;10.80;99.90;;;;;;4973193;28;19922;-77
2022/04/15 13:06:39;;;;;;;;;;;10.80;99.90;;;;;;4973687;28;19980;-77
2022/04/15 13:09:04;;;;;;;;;;;10.80;99.90;;;;;;4974662;28;19922;-77
2022/04/15 13:11:30;;;;;;;;;;;10.80;99.90;;;;;;4974413;28;19984;-77
2022/04/15 13:13:55;;;;;;;;;;;10.60;99.90;;;;;;4965897;28;20009;-78
2022/04/15 13:16:21;;;;;;;;;;;10.50;99.90;;;;;;4971893;28;19949;-79
2022/04/15 13:18:47;;;;;;;;;;;10.40;99.90;;;;;;4972501;28;19929;-79
2022/04/15 13:21:13;;;;;;;;;;;10.50;99.90;;;;;;4972895;28;19922;-79
2022/04/15 13:23:38;;;;;;;;;;;10.50;99.90;;;;;;4972952;28;19921;-79
2022/04/15 13:26:04;;;;;;;;;;;10.40;99.90;;;;;;4973487;28;19987;-79
2022/04/15 13:28:29;;;;;;;;;;;10.40;99.90;;;;;;4974128;28;19922;-78
2022/04/15 13:30:55;;;;;;;;;;;10.40;99.90;;;;;;4972939;28;20016;-77
2022/04/15 13:33:21;;;;;;;;;;;10.50;99.90;;;;;;4973972;28;19930;-77
2022/04/15 13:35:46;;;;;;;;;;;10.60;99.90;;;;;;4973163;28;20424;-77
2022/04/15 13:38:12;;;;;;;;;;;10.50;99.90;;;;;;4987385;28;19926;-76
2022/04/15 13:40:41;;;;;;;;;;;10.50;99.90;;;;;;4972554;28;19932;-77
2022/04/15 13:43:07;;;;;;;;;;;10.50;99.90;;;;;;4974528;28;19921;-77
2022/04/15 13:45:33;;;;;;;;;;;10.40;99.90;;;;;;4977899;28;20013;-77
2022/04/15 13:47:58;;;;;;;;;;;10.40;99.90;;;;;;4977351;28;19926;-77
2022/04/15 13:50:23;;;;;;;;;;;10.40;99.90;;;;;;4977105;28;19922;-76
2022/04/15 13:58:18;;;;;;;;;;;10.50;99.90;;;;;;4977370;28;19922;-76
2022/04/15 14:00:44;;;;;;;;;;;10.50;99.90;;;;;;4977596;28;19922;-77
2022/04/15 14:03:09;;;;;;;;;;;10.50;99.90;;;;;;4978130;28;19922;-76
2022/04/15 14:05:35;;;;;;;;;;;10.60;99.90;;;;;;4961241;28;19925;-77
2022/04/15 14:08:00;;;;;;;;;;;10.60;99.90;;;;;;4977643;28;19984;-77
2022/04/15 14:10:26;;;;;;;;;;;10.70;99.90;;;;;;4975915;28;19968;-80
2022/04/15 14:12:51;;;;;;;;;;;10.70;99.90;;;;;;4977352;28;19925;-78
2022/04/15 14:15:23;;;;;;;;;;;10.80;99.90;;;;;;4975763;28;19926;-78
2022/04/15 14:17:49;;;;;;;;;;;10.80;99.90;;;;;;4970285;28;19922;-78
2022/04/15 14:20:14;;;;;;;;;;;10.70;99.90;;;;;;4968890;28;19926;-78
2022/04/15 14:22:40;;;;;;;;;;;10.70;99.90;;;;;;4955990;28;19922;-78
2022/04/15 14:25:06;;;;;;;;;;;10.70;99.90;;;;;;4969592;28;19921;-78
2022/04/15 14:27:31;;;;;;;;;;;10.70;99.90;;;;;;4971275;28;19926;-78
2022/04/15 14:29:57;;;;;;;;;;;10.60;99.90;;;;;;4971202;28;19928;-78
2022/04/15 14:32:22;;;;;;;;;;;10.60;99.90;;;;;;4969351;28;19926;-78